メルボルン の空港の天気 - METARとTAF

メルボルン空港 ( YMML / MEL ) - オーストラリア ビクトリア州、Melbourne Airport
飛行場実況気象(Metar)
観測時間04/26 21:00 AEST (04/26 11:00 UTC)
風向・風速西南西 3m/s
視程10km以上
天気現象
少しの雲 雲底高度 980m
全天の4割程度の雲 雲底高度 1220m
気温11℃
湿度82%
気圧1024hPa
METARYMML 261100Z 25005KT 9999 FEW032 SCT040 11/08 Q1024
過去の天気等 Google飛行場航空写真 Wunderground天気予報

過去48時間のMETAR

飛行場予報(TAF)
発表時間: 4/26 15:22 AEST (4/26 05:22 UTC)
予報対象時間: 26日16時 AEST ~ 27日22時 AEST
風向・風速南南東 5m/s
視程10km以上
少しの雲 雲底高度 1,070m
全天の8割程度の雲 雲底高度 1,370m
26日21時 AEST から
風向・風速南西 3m/s
視程10km以上
全天の4割程度の雲 雲底高度 1,070m
27日0時 AEST から
風向・風速西 3m/s
視程10km以上
全天の4割程度の雲 雲底高度 610m
全天の8割程度の雲 雲底高度 910m
27日10時 AEST から
風向・風速南 5m/s
視程10km以上
全天の8割程度の雲 雲底高度 1,070m
TAF YMML 260522Z 2606/2712 16010KT 9999 FEW035 BKN045
FM261100 22006KT 9999 SCT035
FM261400 28006KT 9999 SCT020 BKN030
FM270000 17010KT 9999 BKN035